Home > Products > Valid Products > TAF

000
FTUS43 KMKX 011744
TAFMSN
TAF
KMSN 011744Z 0118/0218 19010KT P6SM FEW250
     FM020100 22004KT P6SM FEW250
     FM021100 25004KT 5SM BR SCT250
     FM021400 25007KT P6SM SCT250=



000
FTUS43 KMKX 011744
TAFMKE
TAF
KMKE 011744Z 0118/0224 20009KT P6SM FEW250
      TEMPO 0119/0123 15008KT P6SM FEW250
     FM020100 22006KT P6SM FEW250
     FM021300 26007KT P6SM SCT200
     FM022100 15007KT P6SM SCT250=



000
FTUS43 KMKX 011744
TAFMSN
TAF
KMSN 011744Z 0118/0218 19010KT P6SM FEW250
     FM020100 22004KT P6SM FEW250
     FM021100 25004KT 5SM BR SCT250
     FM021400 25007KT P6SM SCT250=



000
FTUS43 KMKX 011744
TAFMKE
TAF
KMKE 011744Z 0118/0224 20009KT P6SM FEW250
      TEMPO 0119/0123 15008KT P6SM FEW250
     FM020100 22006KT P6SM FEW250
     FM021300 26007KT P6SM SCT200
     FM022100 15007KT P6SM SCT250=



000
FTUS43 KMKX 011458 AAA
TAFMKE
TAF AMD
KMKE 011458Z 0115/0218 21007KT 6SM BR SKC
     FM011900 18010KT P6SM FEW250
     FM020100 20005KT P6SM FEW250
     FM021000 26005KT 5SM BR SCT150
     FM021400 28007KT P6SM BKN100=



000
FTUS43 KMKX 011458 AAA
TAFMSN
TAF AMD
KMSN 011458Z 0115/0212 21005KT P6SM FEW100
     FM011800 22009KT P6SM SCT050
     FM020000 21004KT P6SM SKC
     FM020600 VRB03KT 5SM BR SKC=



000
FTUS43 KMKX 011458 AAA
TAFMSN
TAF AMD
KMSN 011458Z 0115/0212 21005KT P6SM FEW100
     FM011800 22009KT P6SM SCT050
     FM020000 21004KT P6SM SKC
     FM020600 VRB03KT 5SM BR SKC=



000
FTUS43 KMKX 011458 AAA
TAFMKE
TAF AMD
KMKE 011458Z 0115/0218 21007KT 6SM BR SKC
     FM011900 18010KT P6SM FEW250
     FM020100 20005KT P6SM FEW250
     FM021000 26005KT 5SM BR SCT150
     FM021400 28007KT P6SM BKN100=



000
FTUS43 KMKX 011121
TAFMKE
TAF
KMKE 011121Z 0112/0218 20004KT 4SM BR SKC
      TEMPO 0112/0113 2SM BR
     FM011400 21007KT 6SM BR SKC
     FM011900 18010KT P6SM FEW250
     FM020100 20005KT P6SM FEW250
     FM021000 26005KT 5SM BR SCT150
     FM021400 28007KT P6SM BKN100=



000
FTUS43 KMKX 011121
TAFMSN
TAF
KMSN 011121Z 0112/0212 19004KT 5SM BR FEW070
     FM011400 21005KT P6SM FEW100
     FM011800 22009KT P6SM SCT050
     FM020000 21004KT P6SM SKC
     FM020600 VRB03KT 5SM BR SKC=



000
FTUS43 KMKX 011121
TAFMSN
TAF
KMSN 011121Z 0112/0212 19004KT 5SM BR FEW070
     FM011400 21005KT P6SM FEW100
     FM011800 22009KT P6SM SCT050
     FM020000 21004KT P6SM SKC
     FM020600 VRB03KT 5SM BR SKC=



000
FTUS43 KMKX 011121
TAFMKE
TAF
KMKE 011121Z 0112/0218 20004KT 4SM BR SKC
      TEMPO 0112/0113 2SM BR
     FM011400 21007KT 6SM BR SKC
     FM011900 18010KT P6SM FEW250
     FM020100 20005KT P6SM FEW250
     FM021000 26005KT 5SM BR SCT150
     FM021400 28007KT P6SM BKN100=



000
FTUS43 KMKX 011121
TAFMKE
TAF
KMKE 011121Z 0112/0218 20004KT 4SM BR SKC
      TEMPO 0112/0113 2SM BR
     FM011400 21007KT 6SM BR SKC
     FM011900 18010KT P6SM FEW250
     FM020100 20005KT P6SM FEW250
     FM021000 26005KT 5SM BR SCT150
     FM021400 28007KT P6SM BKN100=



000
FTUS43 KMKX 011121
TAFMSN
TAF
KMSN 011121Z 0112/0212 19004KT 5SM BR FEW070
     FM011400 21005KT P6SM FEW100
     FM011800 22009KT P6SM SCT050
     FM020000 21004KT P6SM SKC
     FM020600 VRB03KT 5SM BR SKC=



000
FTUS43 KMKX 011121
TAFMKE
TAF
KMKE 011121Z 0112/0218 20004KT 4SM BR SKC
      TEMPO 0112/0113 2SM BR
     FM011400 21007KT 6SM BR SKC
     FM011900 18010KT P6SM FEW250
     FM020100 20005KT P6SM FEW250
     FM021000 26005KT 5SM BR SCT150
     FM021400 28007KT P6SM BKN100=



000
FTUS43 KMKX 011121
TAFMSN
TAF
KMSN 011121Z 0112/0212 19004KT 5SM BR FEW070
     FM011400 21005KT P6SM FEW100
     FM011800 22009KT P6SM SCT050
     FM020000 21004KT P6SM SKC
     FM020600 VRB03KT 5SM BR SKC=



000
FTUS43 KMKX 010916 AAA
TAFMSN
TAF AMD
KMSN 010916Z 0109/0206 17004KT 6SM BR SCT250
      TEMPO 0110/0113 2SM BR
     FM011300 20006KT P6SM FEW025 BKN200
     FM011800 20009KT P6SM SCT025 BKN200
     FM020100 18004KT P6SM FEW100 BKN200=



000
FTUS43 KMKX 010916 AAA
TAFMSN
TAF AMD
KMSN 010916Z 0109/0206 17004KT 6SM BR SCT250
      TEMPO 0110/0113 2SM BR
     FM011300 20006KT P6SM FEW025 BKN200
     FM011800 20009KT P6SM SCT025 BKN200
     FM020100 18004KT P6SM FEW100 BKN200=



000
FTUS43 KMKX 010849 AAA
TAFMKE
TAF AMD
KMKE 010849Z 0109/0212 19004KT 6SM BR SKC
      TEMPO 0109/0112 3SM BR
     FM011400 20008KT P6SM FEW020 BKN250
     FM011900 18010KT P6SM SCT025 BKN250
     FM020100 18008KT P6SM SCT100 BKN250
     FM020400 21005KT P6SM SCT100=



000
FTUS43 KMKX 010849 AAA
TAFMKE
TAF AMD
KMKE 010849Z 0109/0212 19004KT 6SM BR SKC
      TEMPO 0109/0112 3SM BR
     FM011400 20008KT P6SM FEW020 BKN250
     FM011900 18010KT P6SM SCT025 BKN250
     FM020100 18008KT P6SM SCT100 BKN250
     FM020400 21005KT P6SM SCT100=



000
FTUS43 KMKX 010849 AAA
TAFMKE
TAF AMD
KMKE 010849Z 0109/0212 19004KT 6SM BR SKC
      TEMPO 0109/0112 3SM BR
     FM011400 20008KT P6SM FEW020 BKN250
     FM011900 18010KT P6SM SCT025 BKN250
     FM020100 18008KT P6SM SCT100 BKN250
     FM020400 21005KT P6SM SCT100=



000
FTUS43 KMKX 010523
TAFMSN
TAF
KMSN 010523Z 0106/0206 18005KT P6SM SCT250
     FM010800 18004KT 4SM BR SCT250
     FM011000 19003KT 2SM BR SCT250
     FM011300 20006KT P6SM FEW025 BKN200
     FM011800 20009KT P6SM SCT025 BKN200
     FM020100 18004KT P6SM FEW100 BKN200=



000
FTUS43 KMKX 010523
TAFMSN
TAF
KMSN 010523Z 0106/0206 18005KT P6SM SCT250
     FM010800 18004KT 4SM BR SCT250
     FM011000 19003KT 2SM BR SCT250
     FM011300 20006KT P6SM FEW025 BKN200
     FM011800 20009KT P6SM SCT025 BKN200
     FM020100 18004KT P6SM FEW100 BKN200=



000
FTUS43 KMKX 010523
TAFMSN
TAF
KMSN 010523Z 0106/0206 18005KT P6SM SCT250
     FM010800 18004KT 4SM BR SCT250
     FM011000 19003KT 2SM BR SCT250
     FM011300 20006KT P6SM FEW025 BKN200
     FM011800 20009KT P6SM SCT025 BKN200
     FM020100 18004KT P6SM FEW100 BKN200=



000
FTUS43 KMKX 010523
TAFMKE
TAF
KMKE 010523Z 0106/0212 18004KT 6SM BR SCT250
     FM010800 20004KT 4SM BR SCT250
      TEMPO 0109/0112 2SM BR
     FM011400 20008KT P6SM FEW020 BKN250
     FM011900 18010KT P6SM SCT025 BKN250
     FM020100 18008KT P6SM SCT100 BKN250
     FM020400 21005KT P6SM SCT100=



000
FTUS43 KMKX 010523
TAFMKE
TAF
KMKE 010523Z 0106/0212 18004KT 6SM BR SCT250
     FM010800 20004KT 4SM BR SCT250
      TEMPO 0109/0112 2SM BR
     FM011400 20008KT P6SM FEW020 BKN250
     FM011900 18010KT P6SM SCT025 BKN250
     FM020100 18008KT P6SM SCT100 BKN250
     FM020400 21005KT P6SM SCT100=



000
FTUS43 KMKX 010523
TAFMKE
TAF
KMKE 010523Z 0106/0212 18004KT 6SM BR SCT250
     FM010800 20004KT 4SM BR SCT250
      TEMPO 0109/0112 2SM BR
     FM011400 20008KT P6SM FEW020 BKN250
     FM011900 18010KT P6SM SCT025 BKN250
     FM020100 18008KT P6SM SCT100 BKN250
     FM020400 21005KT P6SM SCT100=



000
FTUS43 KMKX 010523
TAFMKE
TAF
KMKE 010523Z 0106/0212 18004KT 6SM BR SCT250
     FM010800 20004KT 4SM BR SCT250
      TEMPO 0109/0112 2SM BR
     FM011400 20008KT P6SM FEW020 BKN250
     FM011900 18010KT P6SM SCT025 BKN250
     FM020100 18008KT P6SM SCT100 BKN250
     FM020400 21005KT P6SM SCT100=



000
FTUS43 KMKX 010523
TAFMSN
TAF
KMSN 010523Z 0106/0206 18005KT P6SM SCT250
     FM010800 18004KT 4SM BR SCT250
     FM011000 19003KT 2SM BR SCT250
     FM011300 20006KT P6SM FEW025 BKN200
     FM011800 20009KT P6SM SCT025 BKN200
     FM020100 18004KT P6SM FEW100 BKN200=



000
FTUS43 KMKX 010432 CCA
TAFMKE
TAF COR
KMKE 010432Z 0103/0206 17007KT P6SM BKN250
     FM010400 18004KT 5SM BR BKN250
     FM010600 20004KT 4SM BR FEW015 BKN250
      TEMPO 0110/0113 2SM BR SCT015
     FM011400 20008KT P6SM FEW020 BKN250
     FM011900 18010KT P6SM SCT025 BKN250
     FM020100 18008KT P6SM SCT100 BKN250=



000
FTUS43 KMKX 010432 CCA
TAFMKE
TAF COR
KMKE 010432Z 0103/0206 17007KT P6SM BKN250
     FM010400 18004KT 5SM BR BKN250
     FM010600 20004KT 4SM BR FEW015 BKN250
      TEMPO 0110/0113 2SM BR SCT015
     FM011400 20008KT P6SM FEW020 BKN250
     FM011900 18010KT P6SM SCT025 BKN250
     FM020100 18008KT P6SM SCT100 BKN250=



000
FTUS43 KMKX 010432 CCA
TAFMKE
TAF COR
KMKE 010432Z 0103/0206 17007KT P6SM BKN250
     FM010400 18004KT 5SM BR BKN250
     FM010600 20004KT 4SM BR FEW015 BKN250
      TEMPO 0110/0113 2SM BR SCT015
     FM011400 20008KT P6SM FEW020 BKN250
     FM011900 18010KT P6SM SCT025 BKN250
     FM020100 18008KT P6SM SCT100 BKN250=



000
FTUS43 KMKX 010244 AAA
TAFMKE
TAF AMD
KMKE 010244Z 0103/0206 17007KT P6SM BKN250
     FM010400 18004KT 5SM BR BKN250
     FM010600 20004KT 4SM BR FEW015 BKN250
      TEMPO 0110/0113 2SM BR SCT015
     FM011400 20008KT P6SM FEW020 BKN250
     FM011900 18010KT P6SM SCT025 BKN250
     FM020100 01008KT P6SM SCT100 BKN250=



000
FTUS43 KMKX 010244 AAA
TAFMKE
TAF AMD
KMKE 010244Z 0103/0206 17007KT P6SM BKN250
     FM010400 18004KT 5SM BR BKN250
     FM010600 20004KT 4SM BR FEW015 BKN250
      TEMPO 0110/0113 2SM BR SCT015
     FM011400 20008KT P6SM FEW020 BKN250
     FM011900 18010KT P6SM SCT025 BKN250
     FM020100 01008KT P6SM SCT100 BKN250=



000
FTUS43 KMKX 312334
TAFMKE
TAF
KMKE 312334Z 0100/0206 15007KT P6SM BKN250
     FM010400 18004KT 5SM BR BKN250
     FM010600 20004KT 4SM BR FEW015 BKN250
      TEMPO 0110/0113 2SM BR SCT015
     FM011400 20008KT P6SM FEW020 BKN250
     FM011900 18010KT P6SM SCT025 BKN250
     FM020100 01008KT P6SM SCT100 BKN250=



000
FTUS43 KMKX 312334
TAFMSN
TAF
KMSN 312334Z 0100/0124 18005KT P6SM BKN250
     FM010600 18004KT 4SM BR FEW025 BKN250
     FM011000 19003KT 2SM BR SCT025 BKN250
     FM011300 20006KT P6SM SCT025 BKN250
     FM011800 20009KT P6SM SCT025 BKN250=



000
FTUS43 KMKX 312334
TAFMSN
TAF
KMSN 312334Z 0100/0124 18005KT P6SM BKN250
     FM010600 18004KT 4SM BR FEW025 BKN250
     FM011000 19003KT 2SM BR SCT025 BKN250
     FM011300 20006KT P6SM SCT025 BKN250
     FM011800 20009KT P6SM SCT025 BKN250=



000
FTUS43 KMKX 312334
TAFMKE
TAF
KMKE 312334Z 0100/0206 15007KT P6SM BKN250
     FM010400 18004KT 5SM BR BKN250
     FM010600 20004KT 4SM BR FEW015 BKN250
      TEMPO 0110/0113 2SM BR SCT015
     FM011400 20008KT P6SM FEW020 BKN250
     FM011900 18010KT P6SM SCT025 BKN250
     FM020100 01008KT P6SM SCT100 BKN250=



000
FTUS43 KMKX 312004 AAB
TAFMKE
TAF AMD
KMKE 312004Z 3120/0124 23006KT P6SM FEW025 SCT250
     FM312100 16007KT P6SM FEW030 SCT250
     FM010000 16006KT P6SM FEW250
     FM010500 20004KT 4SM BR SCT250
      TEMPO 0110/0113 2SM BR
     FM011900 19010KT P6SM FEW130=



000
FTUS43 KMKX 312004 AAB
TAFMKE
TAF AMD
KMKE 312004Z 3120/0124 23006KT P6SM FEW025 SCT250
     FM312100 16007KT P6SM FEW030 SCT250
     FM010000 16006KT P6SM FEW250
     FM010500 20004KT 4SM BR SCT250
      TEMPO 0110/0113 2SM BR
     FM011900 19010KT P6SM FEW130=



000
FTUS43 KMKX 311832 AAA
TAFMKE
TAF AMD
KMKE 311832Z 3119/0124 21009KT P6SM SCT021
     FM312000 16010KT P6SM SCT022
     FM010000 16006KT P6SM FEW250
     FM010500 20004KT 4SM BR SCT250
      TEMPO 0110/0113 2SM BR
     FM011900 19010KT P6SM FEW130=



000
FTUS43 KMKX 311832 AAA
TAFMKE
TAF AMD
KMKE 311832Z 3119/0124 21009KT P6SM SCT021
     FM312000 16010KT P6SM SCT022
     FM010000 16006KT P6SM FEW250
     FM010500 20004KT 4SM BR SCT250
      TEMPO 0110/0113 2SM BR
     FM011900 19010KT P6SM FEW130=



000
FTUS43 KMKX 311832 AAA
TAFMKE
TAF AMD
KMKE 311832Z 3119/0124 21009KT P6SM SCT021
     FM312000 16010KT P6SM SCT022
     FM010000 16006KT P6SM FEW250
     FM010500 20004KT 4SM BR SCT250
      TEMPO 0110/0113 2SM BR
     FM011900 19010KT P6SM FEW130=



000
FTUS43 KMKX 311832 AAA
TAFMKE
TAF AMD
KMKE 311832Z 3119/0124 21009KT P6SM SCT021
     FM312000 16010KT P6SM SCT022
     FM010000 16006KT P6SM FEW250
     FM010500 20004KT 4SM BR SCT250
      TEMPO 0110/0113 2SM BR
     FM011900 19010KT P6SM FEW130=



000
FTUS43 KMKX 311722
TAFMKE
TAF
KMKE 311722Z 3118/0124 16008KT P6SM OVC018
     FM311900 15010KT P6SM BKN020
     FM312000 16010KT P6SM SCT022
     FM010000 16006KT P6SM FEW250
     FM010500 20004KT 4SM BR SCT250
      TEMPO 0110/0113 2SM BR
     FM011900 19010KT P6SM FEW130=



000
FTUS43 KMKX 311722
TAFMSN
TAF
KMSN 311722Z 3118/0118 16008KT P6SM SCT025 BKN035
      TEMPO 3118/3119 BKN025
     FM312300 17004KT P6SM SCT250
     FM010600 18004KT 4SM BR SCT250
     FM011000 19003KT 2SM BR SCT250
     FM011300 20006KT P6SM SCT250=



000
FTUS43 KMKX 311722
TAFMSN
TAF
KMSN 311722Z 3118/0118 16008KT P6SM SCT025 BKN035
      TEMPO 3118/3119 BKN025
     FM312300 17004KT P6SM SCT250
     FM010600 18004KT 4SM BR SCT250
     FM011000 19003KT 2SM BR SCT250
     FM011300 20006KT P6SM SCT250=



000
FTUS43 KMKX 311722
TAFMKE
TAF
KMKE 311722Z 3118/0124 16008KT P6SM OVC018
     FM311900 15010KT P6SM BKN020
     FM312000 16010KT P6SM SCT022
     FM010000 16006KT P6SM FEW250
     FM010500 20004KT 4SM BR SCT250
      TEMPO 0110/0113 2SM BR
     FM011900 19010KT P6SM FEW130=



000
FTUS43 KMKX 311722
TAFMSN
TAF
KMSN 311722Z 3118/0118 16008KT P6SM SCT025 BKN035
      TEMPO 3118/3119 BKN025
     FM312300 17004KT P6SM SCT250
     FM010600 18004KT 4SM BR SCT250
     FM011000 19003KT 2SM BR SCT250
     FM011300 20006KT P6SM SCT250=



000
FTUS43 KMKX 311722
TAFMKE
TAF
KMKE 311722Z 3118/0124 16008KT P6SM OVC018
     FM311900 15010KT P6SM BKN020
     FM312000 16010KT P6SM SCT022
     FM010000 16006KT P6SM FEW250
     FM010500 20004KT 4SM BR SCT250
      TEMPO 0110/0113 2SM BR
     FM011900 19010KT P6SM FEW130=



000
FTUS43 KMKX 311457 AAC
TAFMKE
TAF AMD
KMKE 311457Z 3115/0118 21005KT P6SM FEW003 BKN015
     FM311600 22004KT P6SM BKN020
     FM311700 16007KT P6SM SCT025
     FM010500 VRB03KT P6SM SKC
     FM011100 21004KT 5SM BR FEW200
     FM011300 21005KT P6SM FEW150=



000
FTUS43 KMKX 311457 AAC
TAFMKE
TAF AMD
KMKE 311457Z 3115/0118 21005KT P6SM FEW003 BKN015
     FM311600 22004KT P6SM BKN020
     FM311700 16007KT P6SM SCT025
     FM010500 VRB03KT P6SM SKC
     FM011100 21004KT 5SM BR FEW200
     FM011300 21005KT P6SM FEW150=



000
FTUS43 KMKX 311457 AAC
TAFMKE
TAF AMD
KMKE 311457Z 3115/0118 21005KT P6SM FEW003 BKN015
     FM311600 22004KT P6SM BKN020
     FM311700 16007KT P6SM SCT025
     FM010500 VRB03KT P6SM SKC
     FM011100 21004KT 5SM BR FEW200
     FM011300 21005KT P6SM FEW150=



000
FTUS43 KMKX 311452 AAC
TAFMSN
TAF AMD
KMSN 311452Z 3115/0112 17004KT P6SM OVC020
     FM311600 20006KT P6SM SCT020
     FM011100 VRB03KT 5SM BR FEW130=



000
FTUS43 KMKX 311452 AAC
TAFMSN
TAF AMD
KMSN 311452Z 3115/0112 17004KT P6SM OVC020
     FM311600 20006KT P6SM SCT020
     FM011100 VRB03KT 5SM BR FEW130=



000
FTUS43 KMKX 311452 AAC
TAFMSN
TAF AMD
KMSN 311452Z 3115/0112 17004KT P6SM OVC020
     FM311600 20006KT P6SM SCT020
     FM011100 VRB03KT 5SM BR FEW130=



000
FTUS43 KMKX 311452 AAC
TAFMSN
TAF AMD
KMSN 311452Z 3115/0112 17004KT P6SM OVC020
     FM311600 20006KT P6SM SCT020
     FM011100 VRB03KT 5SM BR FEW130=



000
FTUS43 KMKX 311354 AAB
TAFMKE
TAF AMD
KMKE 311354Z 3114/0118 23003KT 4SM BR SCT002 BKN018
     FM311600 22004KT P6SM SCT020
     FM311700 16007KT P6SM FEW250
     FM010500 VRB03KT P6SM SKC
     FM011100 21004KT 5SM BR FEW200
     FM011300 21005KT P6SM FEW150=



000
FTUS43 KMKX 311354 AAB
TAFMKE
TAF AMD
KMKE 311354Z 3114/0118 23003KT 4SM BR SCT002 BKN018
     FM311600 22004KT P6SM SCT020
     FM311700 16007KT P6SM FEW250
     FM010500 VRB03KT P6SM SKC
     FM011100 21004KT 5SM BR FEW200
     FM011300 21005KT P6SM FEW150=



000
FTUS43 KMKX 311351 AAB
TAFMSN
TAF AMD
KMSN 311351Z 3114/0112 15003KT P6SM BKN019
     FM311600 20006KT P6SM SCT020
     FM011100 VRB03KT 5SM BR FEW130=



000
FTUS43 KMKX 311351 AAB
TAFMSN
TAF AMD
KMSN 311351Z 3114/0112 15003KT P6SM BKN019
     FM311600 20006KT P6SM SCT020
     FM011100 VRB03KT 5SM BR FEW130=



000
FTUS43 KMKX 311314 AAA
TAFMKE
TAF AMD
KMKE 311314Z 3113/0118 21003KT 3SM BR SCT002
     FM311400 24004KT 5SM BR SCT020
     FM311500 22004KT P6SM SCT020
     FM311700 16007KT P6SM FEW250
     FM010500 VRB03KT P6SM SKC
     FM011100 21004KT 5SM BR FEW200
     FM011300 21005KT P6SM FEW150=



000
FTUS43 KMKX 311314 AAA
TAFMKE
TAF AMD
KMKE 311314Z 3113/0118 21003KT 3SM BR SCT002
     FM311400 24004KT 5SM BR SCT020
     FM311500 22004KT P6SM SCT020
     FM311700 16007KT P6SM FEW250
     FM010500 VRB03KT P6SM SKC
     FM011100 21004KT 5SM BR FEW200
     FM011300 21005KT P6SM FEW150=



000
FTUS43 KMKX 311314 AAA
TAFMKE
TAF AMD
KMKE 311314Z 3113/0118 21003KT 3SM BR SCT002
     FM311400 24004KT 5SM BR SCT020
     FM311500 22004KT P6SM SCT020
     FM311700 16007KT P6SM FEW250
     FM010500 VRB03KT P6SM SKC
     FM011100 21004KT 5SM BR FEW200
     FM011300 21005KT P6SM FEW150=



000
FTUS43 KMKX 311314 AAA
TAFMKE
TAF AMD
KMKE 311314Z 3113/0118 21003KT 3SM BR SCT002
     FM311400 24004KT 5SM BR SCT020
     FM311500 22004KT P6SM SCT020
     FM311700 16007KT P6SM FEW250
     FM010500 VRB03KT P6SM SKC
     FM011100 21004KT 5SM BR FEW200
     FM011300 21005KT P6SM FEW150=



000
FTUS43 KMKX 311232 AAA
TAFMSN
TAF AMD
KMSN 311232Z 3113/0112 00000KT 6SM BR BKN016
     FM311400 VRB03KT P6SM FEW020
     FM311700 20006KT P6SM FEW250
     FM011100 VRB03KT 5SM BR FEW130=



000
FTUS43 KMKX 311232 AAA
TAFMSN
TAF AMD
KMSN 311232Z 3113/0112 00000KT 6SM BR BKN016
     FM311400 VRB03KT P6SM FEW020
     FM311700 20006KT P6SM FEW250
     FM011100 VRB03KT 5SM BR FEW130=



000
FTUS43 KMKX 311144
TAFMKE
TAF
KMKE 311144Z 3112/0118 26004KT 1/2SM FG OVC002
     FM311300 25004KT 2SM BR FEW002
     FM311500 24004KT P6SM SCT070
     FM311700 16007KT P6SM FEW250
     FM010500 VRB03KT P6SM SKC
     FM011100 21004KT 5SM BR FEW200
     FM011300 21005KT P6SM FEW150=



000
FTUS43 KMKX 311144
TAFMSN
TAF
KMSN 311144Z 3112/0112 00000KT 1/2SM FG BKN020
     FM311300 00000KT 4SM BR SCT020
     FM311400 VRB03KT P6SM FEW050
     FM311700 20006KT P6SM FEW250
     FM011100 VRB03KT 5SM BR FEW130=



000
FTUS43 KMKX 311144
TAFMKE
TAF
KMKE 311144Z 3112/0118 26004KT 1/2SM FG OVC002
     FM311300 25004KT 2SM BR FEW002
     FM311500 24004KT P6SM SCT070
     FM311700 16007KT P6SM FEW250
     FM010500 VRB03KT P6SM SKC
     FM011100 21004KT 5SM BR FEW200
     FM011300 21005KT P6SM FEW150=



000
FTUS43 KMKX 311144
TAFMSN
TAF
KMSN 311144Z 3112/0112 00000KT 1/2SM FG BKN020
     FM311300 00000KT 4SM BR SCT020
     FM311400 VRB03KT P6SM FEW050
     FM311700 20006KT P6SM FEW250
     FM011100 VRB03KT 5SM BR FEW130=



000
FTUS43 KMKX 311144
TAFMKE
TAF
KMKE 311144Z 3112/0118 26004KT 1/2SM FG OVC002
     FM311300 25004KT 2SM BR FEW002
     FM311500 24004KT P6SM SCT070
     FM311700 16007KT P6SM FEW250
     FM010500 VRB03KT P6SM SKC
     FM011100 21004KT 5SM BR FEW200
     FM011300 21005KT P6SM FEW150=



000
FTUS43 KMKX 311144
TAFMSN
TAF
KMSN 311144Z 3112/0112 00000KT 1/2SM FG BKN020
     FM311300 00000KT 4SM BR SCT020
     FM311400 VRB03KT P6SM FEW050
     FM311700 20006KT P6SM FEW250
     FM011100 VRB03KT 5SM BR FEW130=



000
FTUS43 KMKX 311144
TAFMKE
TAF
KMKE 311144Z 3112/0118 26004KT 1/2SM FG OVC002
     FM311300 25004KT 2SM BR FEW002
     FM311500 24004KT P6SM SCT070
     FM311700 16007KT P6SM FEW250
     FM010500 VRB03KT P6SM SKC
     FM011100 21004KT 5SM BR FEW200
     FM011300 21005KT P6SM FEW150=



000
FTUS43 KMKX 311144
TAFMSN
TAF
KMSN 311144Z 3112/0112 00000KT 1/2SM FG BKN020
     FM311300 00000KT 4SM BR SCT020
     FM311400 VRB03KT P6SM FEW050
     FM311700 20006KT P6SM FEW250
     FM011100 VRB03KT 5SM BR FEW130=



000
FTUS43 KMKX 311006 AAC
TAFMKE
TAF AMD
KMKE 311006Z 3110/0112 22004KT 4SM BR FEW004
      TEMPO 3110/3112 1/2SM FG BKN001
     FM311300 24004KT 4SM BR SCT008
     FM311400 24004KT 6SM BR SCT015
     FM311600 19005KT P6SM SCT250
     FM311900 15009KT P6SM SCT250
     FM010900 VRB03KT 3SM BR SCT250=



000
FTUS43 KMKX 310951 AAC
TAFMSN
TAF AMD
KMSN 310951Z 3110/0106 VRB03KT 1/2SM FG BKN005
     FM311400 VRB03KT P6SM SCT012
     FM311600 21004KT P6SM SCT250
     FM312300 17004KT P6SM SCT250=



000
FTUS43 KMKX 310951 AAC
TAFMSN
TAF AMD
KMSN 310951Z 3110/0106 VRB03KT 1/2SM FG BKN005
     FM311400 VRB03KT P6SM SCT012
     FM311600 21004KT P6SM SCT250
     FM312300 17004KT P6SM SCT250=



000
FTUS43 KMKX 310911 AAB
TAFMKE
TAF AMD
KMKE 310911Z 3109/0112 22004KT 4SM BR FEW004
      TEMPO 3109/3111 1/2SM FG SCT002
     FM311100 24004KT 2SM BR SCT002
     FM311300 24004KT 4SM BR SCT008
     FM311400 24004KT 6SM BR SCT015
     FM311600 19005KT P6SM SCT250
     FM311900 15009KT P6SM SCT250
     FM010900 VRB03KT 3SM BR SCT250=



000
FTUS43 KMKX 310911 AAB
TAFMKE
TAF AMD
KMKE 310911Z 3109/0112 22004KT 4SM BR FEW004
      TEMPO 3109/3111 1/2SM FG SCT002
     FM311100 24004KT 2SM BR SCT002
     FM311300 24004KT 4SM BR SCT008
     FM311400 24004KT 6SM BR SCT015
     FM311600 19005KT P6SM SCT250
     FM311900 15009KT P6SM SCT250
     FM010900 VRB03KT 3SM BR SCT250=



000
FTUS43 KMKX 310802 AAA
TAFMKE
TAF AMD
KMKE 310802Z 3108/0112 22005KT 4SM BR FEW004
     FM311000 24004KT 2SM BR SCT002
     FM311300 24004KT 4SM BR SCT008
     FM311400 24004KT 6SM BR SCT015
     FM311600 19005KT P6SM SCT250
     FM311900 15009KT P6SM SCT250
     FM010900 VRB03KT 3SM BR SCT250=



000
FTUS43 KMKX 310802 AAA
TAFMKE
TAF AMD
KMKE 310802Z 3108/0112 22005KT 4SM BR FEW004
     FM311000 24004KT 2SM BR SCT002
     FM311300 24004KT 4SM BR SCT008
     FM311400 24004KT 6SM BR SCT015
     FM311600 19005KT P6SM SCT250
     FM311900 15009KT P6SM SCT250
     FM010900 VRB03KT 3SM BR SCT250=



000
FTUS43 KMKX 310802 AAB
TAFMSN
TAF AMD
KMSN 310802Z 3108/0106 VRB03KT 2SM BR SCT005
      TEMPO 3108/3110 1/4SM FG VV005
     FM311000 VRB03KT 1/2SM FG BKN002
     FM311400 VRB03KT P6SM SCT012
     FM311600 21004KT P6SM SCT250
     FM312300 17004KT P6SM SCT250=



000
FTUS43 KMKX 310759 AAA
TAFMSN
TAF AMD
KMSN 310759Z 3108/0106 VRB03KT 2SM BR SCT005
      TEMPO 3108/3110 1/2SM FG VV005
     FM311000 VRB03KT 1/2SM FG BKN002
     FM311400 VRB03KT P6SM SCT012
     FM311600 21004KT P6SM SCT250
     FM312300 17004KT P6SM SCT250=



000
FTUS43 KMKX 310759 AAA
TAFMSN
TAF AMD
KMSN 310759Z 3108/0106 VRB03KT 2SM BR SCT005
      TEMPO 3108/3110 1/2SM FG VV005
     FM311000 VRB03KT 1/2SM FG BKN002
     FM311400 VRB03KT P6SM SCT012
     FM311600 21004KT P6SM SCT250
     FM312300 17004KT P6SM SCT250=



000
FTUS43 KMKX 310530
TAFMSN
TAF
KMSN 310530Z 3106/0106 20004KT P6SM SCT250
     FM310800 VRB03KT 5SM BR SCT004
     FM311000 VRB03KT 3/4SM BR SCT002
     FM311400 VRB03KT P6SM SCT012
     FM311600 21004KT P6SM SCT250
     FM312300 17004KT P6SM SCT250=



000
FTUS43 KMKX 310530
TAFMKE
TAF
KMKE 310530Z 3106/0112 21005KT 3SM BR SKC
     FM310800 22004KT 2SM BR FEW004
     FM311000 24004KT 1/2SM FG SCT002
     FM311300 24004KT 2SM BR SCT008
     FM311400 24004KT 6SM BR SCT015
     FM311600 19005KT P6SM SCT250
     FM311900 15009KT P6SM SCT250
     FM010900 VRB03KT 3SM BR SCT250=



000
FTUS43 KMKX 310530
TAFMSN
TAF
KMSN 310530Z 3106/0106 20004KT P6SM SCT250
     FM310800 VRB03KT 5SM BR SCT004
     FM311000 VRB03KT 3/4SM BR SCT002
     FM311400 VRB03KT P6SM SCT012
     FM311600 21004KT P6SM SCT250
     FM312300 17004KT P6SM SCT250=



000
FTUS43 KMKX 310530
TAFMKE
TAF
KMKE 310530Z 3106/0112 21005KT 3SM BR SKC
     FM310800 22004KT 2SM BR FEW004
     FM311000 24004KT 1/2SM FG SCT002
     FM311300 24004KT 2SM BR SCT008
     FM311400 24004KT 6SM BR SCT015
     FM311600 19005KT P6SM SCT250
     FM311900 15009KT P6SM SCT250
     FM010900 VRB03KT 3SM BR SCT250=



000
FTUS43 KMKX 310258 AAB
TAFMKE
TAF AMD
KMKE 310258Z 3103/0106 16005KT 5SM BR SKC
     FM311000 23004KT 2SM BR SKC
     FM311400 22005KT 5SM BR SKC
     FM311500 22005KT P6SM SKC
     FM311900 15009KT 6SM HZ SCT250
     FM010100 18004KT P6SM SKC=



000
FTUS43 KMKX 310258 AAB
TAFMKE
TAF AMD
KMKE 310258Z 3103/0106 16005KT 5SM BR SKC
     FM311000 23004KT 2SM BR SKC
     FM311400 22005KT 5SM BR SKC
     FM311500 22005KT P6SM SKC
     FM311900 15009KT 6SM HZ SCT250
     FM010100 18004KT P6SM SKC=



000
FTUS43 KMKX 310258 AAB
TAFMKE
TAF AMD
KMKE 310258Z 3103/0106 16005KT 5SM BR SKC
     FM311000 23004KT 2SM BR SKC
     FM311400 22005KT 5SM BR SKC
     FM311500 22005KT P6SM SKC
     FM311900 15009KT 6SM HZ SCT250
     FM010100 18004KT P6SM SKC=



000
FTUS43 KMKX 310258 AAB
TAFMKE
TAF AMD
KMKE 310258Z 3103/0106 16005KT 5SM BR SKC
     FM311000 23004KT 2SM BR SKC
     FM311400 22005KT 5SM BR SKC
     FM311500 22005KT P6SM SKC
     FM311900 15009KT 6SM HZ SCT250
     FM010100 18004KT P6SM SKC=



000
FTUS43 KMKX 310203 AAA
TAFMKE
TAF AMD
KMKE 310203Z 3102/0106 16005KT 5SM BR SKC
     FM311000 23004KT 2SM BR SKC
     FM311400 22005KT 5SM BR SKC
     FM311500 22005KT P6SM SKC
     FM311900 15009KT 6SM HZ SCT250
     FM010100 18004KT P6SM SKC=



000
FTUS43 KMKX 310203 AAA
TAFMKE
TAF AMD
KMKE 310203Z 3102/0106 16005KT 5SM BR SKC
     FM311000 23004KT 2SM BR SKC
     FM311400 22005KT 5SM BR SKC
     FM311500 22005KT P6SM SKC
     FM311900 15009KT 6SM HZ SCT250
     FM010100 18004KT P6SM SKC=



000
FTUS43 KMKX 302320
TAFMKE
TAF
KMKE 302320Z 3100/0106 15005KT P6SM FEW025
     FM310600 19004KT 5SM BR SKC
     FM311100 23004KT 2SM BR SKC
     FM311400 22005KT 5SM BR SKC
     FM311500 22005KT P6SM SKC
     FM311900 15009KT 6SM HZ SCT250
     FM010100 18004KT P6SM SKC=



000
FTUS43 KMKX 302320
TAFMKE
TAF
KMKE 302320Z 3100/0106 15005KT P6SM FEW025
     FM310600 19004KT 5SM BR SKC
     FM311100 23004KT 2SM BR SKC
     FM311400 22005KT 5SM BR SKC
     FM311500 22005KT P6SM SKC
     FM311900 15009KT 6SM HZ SCT250
     FM010100 18004KT P6SM SKC=



000
FTUS43 KMKX 302320
TAFMSN
TAF
KMSN 302320Z 3100/3124 21004KT P6SM FEW030 BKN250
     FM310800 VRB03KT 5SM BR SKC
     FM311000 VRB03KT 2SM BR SKC
     FM311300 20004KT P6SM SKC
     FM311800 19008KT P6SM SCT200=



000
FTUS43 KMKX 302320
TAFMKE
TAF
KMKE 302320Z 3100/0106 15005KT P6SM FEW025
     FM310600 19004KT 5SM BR SKC
     FM311100 23004KT 2SM BR SKC
     FM311400 22005KT 5SM BR SKC
     FM311500 22005KT P6SM SKC
     FM311900 15009KT 6SM HZ SCT250
     FM010100 18004KT P6SM SKC=



000
FTUS43 KMKX 302320
TAFMKE
TAF
KMKE 302320Z 3100/0106 15005KT P6SM FEW025
     FM310600 19004KT 5SM BR SKC
     FM311100 23004KT 2SM BR SKC
     FM311400 22005KT 5SM BR SKC
     FM311500 22005KT P6SM SKC
     FM311900 15009KT 6SM HZ SCT250
     FM010100 18004KT P6SM SKC=



000
FTUS43 KMKX 302320
TAFMSN
TAF
KMSN 302320Z 3100/3124 21004KT P6SM FEW030 BKN250
     FM310800 VRB03KT 5SM BR SKC
     FM311000 VRB03KT 2SM BR SKC
     FM311300 20004KT P6SM SKC
     FM311800 19008KT P6SM SCT200=



000
FTUS43 KMKX 302320
TAFMSN
TAF
KMSN 302320Z 3100/3124 21004KT P6SM FEW030 BKN250
     FM310800 VRB03KT 5SM BR SKC
     FM311000 VRB03KT 2SM BR SKC
     FM311300 20004KT P6SM SKC
     FM311800 19008KT P6SM SCT200=



000
FTUS43 KMKX 302320
TAFMSN
TAF
KMSN 302320Z 3100/3124 21004KT P6SM FEW030 BKN250
     FM310800 VRB03KT 5SM BR SKC
     FM311000 VRB03KT 2SM BR SKC
     FM311300 20004KT P6SM SKC
     FM311800 19008KT P6SM SCT200=



000
FTUS43 KMKX 302015 AAA
TAFMKE
TAF AMD
KMKE 302015Z 3020/3124 13007KT P6SM SCT022 OVC250
     FM310400 20004KT P6SM SCT020
     FM310900 VRB03KT 1SM BR FEW015
      TEMPO 3109/3112 1/2SM FG
     FM311300 23004KT 4SM BR FEW015
     FM311500 16008KT P6SM FEW025=



000
FTUS43 KMKX 302015 AAA
TAFMKE
TAF AMD
KMKE 302015Z 3020/3124 13007KT P6SM SCT022 OVC250
     FM310400 20004KT P6SM SCT020
     FM310900 VRB03KT 1SM BR FEW015
      TEMPO 3109/3112 1/2SM FG
     FM311300 23004KT 4SM BR FEW015
     FM311500 16008KT P6SM FEW025=



000
FTUS43 KMKX 302015 AAA
TAFMKE
TAF AMD
KMKE 302015Z 3020/3124 13007KT P6SM SCT022 OVC250
     FM310400 20004KT P6SM SCT020
     FM310900 VRB03KT 1SM BR FEW015
      TEMPO 3109/3112 1/2SM FG
     FM311300 23004KT 4SM BR FEW015
     FM311500 16008KT P6SM FEW025=



000
FTUS43 KMKX 301917 AAA
TAFMSN
TAF AMD
KMSN 301917Z 3019/3118 20005KT P6SM SCT025
     FM302300 19004KT P6SM SCT020
     FM310800 00000KT 5SM BR FEW015
     FM310900 00000KT 2SM BR SCT012
     FM311300 20004KT 6SM BR FEW015
     FM311400 20006KT P6SM FEW020=



000
FTUS43 KMKX 301917 AAA
TAFMSN
TAF AMD
KMSN 301917Z 3019/3118 20005KT P6SM SCT025
     FM302300 19004KT P6SM SCT020
     FM310800 00000KT 5SM BR FEW015
     FM310900 00000KT 2SM BR SCT012
     FM311300 20004KT 6SM BR FEW015
     FM311400 20006KT P6SM FEW020=



000
FTUS43 KMKX 301724
TAFMKE
TAF
KMKE 301724Z 3018/3124 13005KT P6SM OVC017
     FM302000 14006KT P6SM OVC020
     FM310400 20004KT P6SM BKN020
     FM310900 VRB03KT 1SM BR FEW015
      TEMPO 3109/3112 1/2SM FG
     FM311300 23004KT 4SM BR FEW015
     FM311500 16008KT P6SM FEW025=



000
FTUS43 KMKX 301724
TAFMSN
TAF
KMSN 301724Z 3018/3118 21004KT P6SM BKN020
     FM302300 19004KT P6SM SCT020
     FM310800 00000KT 5SM BR FEW015
     FM310900 00000KT 2SM BR SCT012
     FM311300 20004KT 6SM BR FEW015
     FM311400 20006KT P6SM FEW020=



000
FTUS43 KMKX 301724
TAFMKE
TAF
KMKE 301724Z 3018/3124 13005KT P6SM OVC017
     FM302000 14006KT P6SM OVC020
     FM310400 20004KT P6SM BKN020
     FM310900 VRB03KT 1SM BR FEW015
      TEMPO 3109/3112 1/2SM FG
     FM311300 23004KT 4SM BR FEW015
     FM311500 16008KT P6SM FEW025=



000
FTUS43 KMKX 301724
TAFMSN
TAF
KMSN 301724Z 3018/3118 21004KT P6SM BKN020
     FM302300 19004KT P6SM SCT020
     FM310800 00000KT 5SM BR FEW015
     FM310900 00000KT 2SM BR SCT012
     FM311300 20004KT 6SM BR FEW015
     FM311400 20006KT P6SM FEW020=



000
FTUS43 KMKX 301724
TAFMSN
TAF
KMSN 301724Z 3018/3118 21004KT P6SM BKN020
     FM302300 19004KT P6SM SCT020
     FM310800 00000KT 5SM BR FEW015
     FM310900 00000KT 2SM BR SCT012
     FM311300 20004KT 6SM BR FEW015
     FM311400 20006KT P6SM FEW020=



000
FTUS43 KMKX 301724
TAFMKE
TAF
KMKE 301724Z 3018/3124 13005KT P6SM OVC017
     FM302000 14006KT P6SM OVC020
     FM310400 20004KT P6SM BKN020
     FM310900 VRB03KT 1SM BR FEW015
      TEMPO 3109/3112 1/2SM FG
     FM311300 23004KT 4SM BR FEW015
     FM311500 16008KT P6SM FEW025=



000
FTUS43 KMKX 301602 AAE
TAFMKE
TAF AMD
KMKE 301602Z 3016/3118 35003KT P6SM BKN010 OVC030
     FM301700 03005KT P6SM SCT010 BKN020
     FM302000 14007KT P6SM BKN020
     FM310400 20004KT P6SM FEW250
     FM311200 23004KT 6SM BR SCT250
     FM311600 20007KT P6SM SCT250=



000
FTUS43 KMKX 301545 AAD
TAFMKE
TAF AMD
KMKE 301545Z 3016/3118 35003KT 5SM BR BKN005 OVC010
     FM301700 03005KT P6SM SCT005 BKN012
     FM301800 12004KT P6SM BKN015
     FM302000 14007KT P6SM BKN020
     FM310400 20004KT P6SM FEW250
     FM311200 23004KT 6SM BR SCT250
     FM311600 20007KT P6SM SCT250=



000
FTUS43 KMKX 301545 AAD
TAFMKE
TAF AMD
KMKE 301545Z 3016/3118 35003KT 5SM BR BKN005 OVC010
     FM301700 03005KT P6SM SCT005 BKN012
     FM301800 12004KT P6SM BKN015
     FM302000 14007KT P6SM BKN020
     FM310400 20004KT P6SM FEW250
     FM311200 23004KT 6SM BR SCT250
     FM311600 20007KT P6SM SCT250=



000
FTUS43 KMKX 301541 AAB
TAFMSN
TAF AMD
KMSN 301541Z 3016/3112 19004KT P6SM BKN021
     FM301700 21004KT P6SM BKN020
     FM310800 00000KT 6SM BR FEW150
     FM310900 00000KT 2SM BR FEW120=



000
FTUS43 KMKX 301541 AAB
TAFMSN
TAF AMD
KMSN 301541Z 3016/3112 19004KT P6SM BKN021
     FM301700 21004KT P6SM BKN020
     FM310800 00000KT 6SM BR FEW150
     FM310900 00000KT 2SM BR FEW120=



000
FTUS43 KMKX 301438 AAC
TAFMKE
TAF AMD
KMKE 301438Z 3015/3118 00000KT 1 1/2SM BR OVC002
     FM301530 VRB03KT 3SM BR BKN006
     FM301800 12004KT P6SM SCT030
     FM302000 14007KT P6SM SCT200
     FM310400 20004KT P6SM FEW250
     FM311200 23004KT 6SM BR SCT250
     FM311600 20007KT P6SM SCT250=



000
FTUS43 KMKX 301438 AAC
TAFMKE
TAF AMD
KMKE 301438Z 3015/3118 00000KT 1 1/2SM BR OVC002
     FM301530 VRB03KT 3SM BR BKN006
     FM301800 12004KT P6SM SCT030
     FM302000 14007KT P6SM SCT200
     FM310400 20004KT P6SM FEW250
     FM311200 23004KT 6SM BR SCT250
     FM311600 20007KT P6SM SCT250=



000
FTUS43 KMKX 301422 AAB
TAFMKE
TAF AMD
KMKE 301422Z 3014/3118 06003KT 1/4SM FG VV002
     FM301530 VRB03KT 3SM BR BKN008
     FM301800 12004KT P6SM SCT030
     FM302000 14007KT P6SM SCT200
     FM310400 20004KT P6SM FEW250
     FM311200 23004KT 6SM BR SCT250
     FM311600 20007KT P6SM SCT250=



000
FTUS43 KMKX 301422 AAB
TAFMKE
TAF AMD
KMKE 301422Z 3014/3118 06003KT 1/4SM FG VV002
     FM301530 VRB03KT 3SM BR BKN008
     FM301800 12004KT P6SM SCT030
     FM302000 14007KT P6SM SCT200
     FM310400 20004KT P6SM FEW250
     FM311200 23004KT 6SM BR SCT250
     FM311600 20007KT P6SM SCT250=



000
FTUS43 KMKX 301251 AAA
TAFMSN
TAF AMD
KMSN 301251Z 3013/3112 00000KT P6SM SCT024
     FM301700 21004KT P6SM SCT030
     FM310800 00000KT 6SM BR FEW150
     FM310900 00000KT 2SM BR FEW120=



000
FTUS43 KMKX 301251 AAA
TAFMSN
TAF AMD
KMSN 301251Z 3013/3112 00000KT P6SM SCT024
     FM301700 21004KT P6SM SCT030
     FM310800 00000KT 6SM BR FEW150
     FM310900 00000KT 2SM BR FEW120=



000
FTUS43 KMKX 301251 AAA
TAFMSN
TAF AMD
KMSN 301251Z 3013/3112 00000KT P6SM SCT024
     FM301700 21004KT P6SM SCT030
     FM310800 00000KT 6SM BR FEW150
     FM310900 00000KT 2SM BR FEW120=



000
FTUS43 KMKX 301251 AAA
TAFMSN
TAF AMD
KMSN 301251Z 3013/3112 00000KT P6SM SCT024
     FM301700 21004KT P6SM SCT030
     FM310800 00000KT 6SM BR FEW150
     FM310900 00000KT 2SM BR FEW120=



000
FTUS43 KMKX 301249 AAA
TAFMKE
TAF AMD
KMKE 301249Z 3013/3118 VRB03KT 2SM BR OVC003
      TEMPO 3013/3014 1/2SM FG VV002
     FM301500 VRB03KT 3SM BR BKN008
     FM301800 12004KT P6SM SCT030
     FM302000 14007KT P6SM SCT200
     FM310400 20004KT P6SM FEW250
     FM311200 23004KT 6SM BR SCT250
     FM311600 20007KT P6SM SCT250=



000
FTUS43 KMKX 301249 AAA
TAFMKE
TAF AMD
KMKE 301249Z 3013/3118 VRB03KT 2SM BR OVC003
      TEMPO 3013/3014 1/2SM FG VV002
     FM301500 VRB03KT 3SM BR BKN008
     FM301800 12004KT P6SM SCT030
     FM302000 14007KT P6SM SCT200
     FM310400 20004KT P6SM FEW250
     FM311200 23004KT 6SM BR SCT250
     FM311600 20007KT P6SM SCT250=



000
FTUS43 KMKX 301144
TAFMSN
TAF
KMSN 301144Z 3012/3112 00000KT 4SM BR FEW008 OVC023
     FM301500 00000KT P6SM BKN025
     FM301700 21004KT P6SM SCT030
     FM310800 00000KT 6SM BR FEW150
     FM310900 00000KT 2SM BR FEW120=



000
FTUS43 KMKX 301144
TAFMKE
TAF
KMKE 301144Z 3012/3118 VRB03KT 2SM BR OVC003
      TEMPO 3012/3014 1/4SM FG VV002
     FM301500 VRB03KT 3SM BR BKN008
     FM301800 12004KT P6SM SCT030
     FM302000 14007KT P6SM SCT200
     FM310400 20004KT P6SM FEW250
     FM311200 23004KT 6SM BR SCT250
     FM311600 20007KT P6SM SCT250=



000
FTUS43 KMKX 301144
TAFMKE
TAF
KMKE 301144Z 3012/3118 VRB03KT 2SM BR OVC003
      TEMPO 3012/3014 1/4SM FG VV002
     FM301500 VRB03KT 3SM BR BKN008
     FM301800 12004KT P6SM SCT030
     FM302000 14007KT P6SM SCT200
     FM310400 20004KT P6SM FEW250
     FM311200 23004KT 6SM BR SCT250
     FM311600 20007KT P6SM SCT250=



000
FTUS43 KMKX 301144
TAFMSN
TAF
KMSN 301144Z 3012/3112 00000KT 4SM BR FEW008 OVC023
     FM301500 00000KT P6SM BKN025
     FM301700 21004KT P6SM SCT030
     FM310800 00000KT 6SM BR FEW150
     FM310900 00000KT 2SM BR FEW120=



000
FTUS43 KMKX 301144
TAFMKE
TAF
KMKE 301144Z 3012/3118 VRB03KT 2SM BR OVC003
      TEMPO 3012/3014 1/4SM FG VV002
     FM301500 VRB03KT 3SM BR BKN008
     FM301800 12004KT P6SM SCT030
     FM302000 14007KT P6SM SCT200
     FM310400 20004KT P6SM FEW250
     FM311200 23004KT 6SM BR SCT250
     FM311600 20007KT P6SM SCT250=



000
FTUS43 KMKX 301144
TAFMSN
TAF
KMSN 301144Z 3012/3112 00000KT 4SM BR FEW008 OVC023
     FM301500 00000KT P6SM BKN025
     FM301700 21004KT P6SM SCT030
     FM310800 00000KT 6SM BR FEW150
     FM310900 00000KT 2SM BR FEW120=



000
FTUS43 KMKX 301039 AAD
TAFMSN
TAF AMD
KMSN 301039Z 3011/3106 00000KT 2SM BR SCT004 BKN019 OVC024
     FM301400 00000KT 5SM BR BKN008
     FM301500 00000KT P6SM BKN015
     FM301900 20004KT P6SM SCT015 SCT200=



000
FTUS43 KMKX 301039 AAD
TAFMSN
TAF AMD
KMSN 301039Z 3011/3106 00000KT 2SM BR SCT004 BKN019 OVC024
     FM301400 00000KT 5SM BR BKN008
     FM301500 00000KT P6SM BKN015
     FM301900 20004KT P6SM SCT015 SCT200=



000
FTUS43 KMKX 300936 AAC
TAFMSN
TAF AMD
KMSN 300936Z 3010/3106 00000KT 3SM BR SCT004 BKN019 OVC024
     FM301400 00000KT 5SM BR BKN008
     FM301500 00000KT P6SM BKN015
     FM301900 20004KT P6SM SCT015 SCT200=



000
FTUS43 KMKX 300906 AAB
TAFMKE
TAF AMD
KMKE 300906Z 3009/3112 VRB03KT 1 1/2SM BR OVC002
      TEMPO 3009/3012 1/4SM FG
     FM301400 VRB03KT 3SM BR BKN006
     FM301600 VRB03KT 6SM BR BKN015
     FM302000 13006KT P6SM SCT020 SCT200
     FM310500 20004KT P6SM FEW250=



000
FTUS43 KMKX 300906 AAB
TAFMKE
TAF AMD
KMKE 300906Z 3009/3112 VRB03KT 1 1/2SM BR OVC002
      TEMPO 3009/3012 1/4SM FG
     FM301400 VRB03KT 3SM BR BKN006
     FM301600 VRB03KT 6SM BR BKN015
     FM302000 13006KT P6SM SCT020 SCT200
     FM310500 20004KT P6SM FEW250=



000
FTUS43 KMKX 300906 AAB
TAFMKE
TAF AMD
KMKE 300906Z 3009/3112 VRB03KT 1 1/2SM BR OVC002
      TEMPO 3009/3012 1/4SM FG
     FM301400 VRB03KT 3SM BR BKN006
     FM301600 VRB03KT 6SM BR BKN015
     FM302000 13006KT P6SM SCT020 SCT200
     FM310500 20004KT P6SM FEW250=



000
FTUS43 KMKX 300842 AAB
TAFMSN
TAF AMD
KMSN 300842Z 3009/3106 00000KT 2SM BR SCT015 OVC025
     FM301000 00000KT 2SM BR BKN004
     FM301400 00000KT 5SM BR BKN008
     FM301500 00000KT P6SM BKN015
     FM301900 20004KT P6SM SCT015 SCT200=



000
FTUS43 KMKX 300842 AAB
TAFMSN
TAF AMD
KMSN 300842Z 3009/3106 00000KT 2SM BR SCT015 OVC025
     FM301000 00000KT 2SM BR BKN004
     FM301400 00000KT 5SM BR BKN008
     FM301500 00000KT P6SM BKN015
     FM301900 20004KT P6SM SCT015 SCT200=



000
FTUS43 KMKX 300842 AAA
TAFMKE
TAF AMD
KMKE 300842Z 3009/3112 VRB03KT 1 1/2SM BR OVC002
      TEMPO 3010/3012 1/2SM FG
     FM301400 VRB03KT 3SM BR BKN006
     FM301600 VRB03KT 6SM BR BKN015
     FM302000 13006KT P6SM SCT020 SCT200
     FM310500 20004KT P6SM FEW250=



000
FTUS43 KMKX 300842 AAA
TAFMKE
TAF AMD
KMKE 300842Z 3009/3112 VRB03KT 1 1/2SM BR OVC002
      TEMPO 3010/3012 1/2SM FG
     FM301400 VRB03KT 3SM BR BKN006
     FM301600 VRB03KT 6SM BR BKN015
     FM302000 13006KT P6SM SCT020 SCT200
     FM310500 20004KT P6SM FEW250=



000
FTUS43 KMKX 300842 AAA
TAFMKE
TAF AMD
KMKE 300842Z 3009/3112 VRB03KT 1 1/2SM BR OVC002
      TEMPO 3010/3012 1/2SM FG
     FM301400 VRB03KT 3SM BR BKN006
     FM301600 VRB03KT 6SM BR BKN015
     FM302000 13006KT P6SM SCT020 SCT200
     FM310500 20004KT P6SM FEW250=



000
FTUS43 KMKX 300809 AAA
TAFMSN
TAF AMD
KMSN 300809Z 3008/3106 00000KT 3SM BR SCT015 OVC025
     FM301000 00000KT 2SM BR BKN004
     FM301400 00000KT 5SM BR BKN008
     FM301500 00000KT P6SM BKN015
     FM301900 20004KT P6SM SCT015 SCT200=



000
FTUS43 KMKX 300809 AAA
TAFMSN
TAF AMD
KMSN 300809Z 3008/3106 00000KT 3SM BR SCT015 OVC025
     FM301000 00000KT 2SM BR BKN004
     FM301400 00000KT 5SM BR BKN008
     FM301500 00000KT P6SM BKN015
     FM301900 20004KT P6SM SCT015 SCT200=



000
FTUS43 KMKX 300530
TAFMSN
TAF
KMSN 300530Z 3006/3106 00000KT 6SM BR BKN025
     FM300800 00000KT 3SM BR BKN015
     FM301000 00000KT 2SM BR BKN004
     FM301400 00000KT 5SM BR BKN008
     FM301500 00000KT P6SM BKN015
     FM301900 20004KT P6SM SCT015 SCT200=



000
FTUS43 KMKX 300530
TAFMSN
TAF
KMSN 300530Z 3006/3106 00000KT 6SM BR BKN025
     FM300800 00000KT 3SM BR BKN015
     FM301000 00000KT 2SM BR BKN004
     FM301400 00000KT 5SM BR BKN008
     FM301500 00000KT P6SM BKN015
     FM301900 20004KT P6SM SCT015 SCT200=



000
FTUS43 KMKX 300530
TAFMKE
TAF
KMKE 300530Z 3006/3112 34005KT 2SM BR OVC002
      TEMPO 3006/3009 1/2SM FG
     FM300900 VRB03KT 1 1/2SM BR OVC002
      TEMPO 3010/3012 1/2SM FG
     FM301400 VRB03KT 3SM BR BKN006
     FM301600 VRB03KT 6SM BR BKN015
     FM302000 13006KT P6SM SCT020 SCT200
     FM310500 20004KT P6SM FEW250=



000
FTUS43 KMKX 300530
TAFMKE
TAF
KMKE 300530Z 3006/3112 34005KT 2SM BR OVC002
      TEMPO 3006/3009 1/2SM FG
     FM300900 VRB03KT 1 1/2SM BR OVC002
      TEMPO 3010/3012 1/2SM FG
     FM301400 VRB03KT 3SM BR BKN006
     FM301600 VRB03KT 6SM BR BKN015
     FM302000 13006KT P6SM SCT020 SCT200
     FM310500 20004KT P6SM FEW250=



000
FTUS43 KMKX 300530
TAFMSN
TAF
KMSN 300530Z 3006/3106 00000KT 6SM BR BKN025
     FM300800 00000KT 3SM BR BKN015
     FM301000 00000KT 2SM BR BKN004
     FM301400 00000KT 5SM BR BKN008
     FM301500 00000KT P6SM BKN015
     FM301900 20004KT P6SM SCT015 SCT200=



000
FTUS43 KMKX 300530
TAFMKE
TAF
KMKE 300530Z 3006/3112 34005KT 2SM BR OVC002
      TEMPO 3006/3009 1/2SM FG
     FM300900 VRB03KT 1 1/2SM BR OVC002
      TEMPO 3010/3012 1/2SM FG
     FM301400 VRB03KT 3SM BR BKN006
     FM301600 VRB03KT 6SM BR BKN015
     FM302000 13006KT P6SM SCT020 SCT200
     FM310500 20004KT P6SM FEW250=



000
FTUS43 KMKX 300530
TAFMSN
TAF
KMSN 300530Z 3006/3106 00000KT 6SM BR BKN025
     FM300800 00000KT 3SM BR BKN015
     FM301000 00000KT 2SM BR BKN004
     FM301400 00000KT 5SM BR BKN008
     FM301500 00000KT P6SM BKN015
     FM301900 20004KT P6SM SCT015 SCT200=



000
FTUS43 KMKX 300530
TAFMKE
TAF
KMKE 300530Z 3006/3112 34005KT 2SM BR OVC002
      TEMPO 3006/3009 1/2SM FG
     FM300900 VRB03KT 1 1/2SM BR OVC002
      TEMPO 3010/3012 1/2SM FG
     FM301400 VRB03KT 3SM BR BKN006
     FM301600 VRB03KT 6SM BR BKN015
     FM302000 13006KT P6SM SCT020 SCT200
     FM310500 20004KT P6SM FEW250=



000
FTUS43 KMKX 300300 AAB
TAFMKE
TAF AMD
KMKE 300300Z 3003/3106 34006KT 2SM BR OVC002
      TEMPO 3005/3008 1SM BR
     FM300800 VRB03KT 1SM BR OVC002
      TEMPO 3009/3012 1/2SM FG
     FM301400 03005KT 3SM BR BKN006 BKN015
     FM301700 VRB03KT 6SM BR SCT015
     FM302100 13006KT P6SM FEW250
     FM310500 20004KT P6SM FEW250=



000
FTUS43 KMKX 300300 AAB
TAFMKE
TAF AMD
KMKE 300300Z 3003/3106 34006KT 2SM BR OVC002
      TEMPO 3005/3008 1SM BR
     FM300800 VRB03KT 1SM BR OVC002
      TEMPO 3009/3012 1/2SM FG
     FM301400 03005KT 3SM BR BKN006 BKN015
     FM301700 VRB03KT 6SM BR SCT015
     FM302100 13006KT P6SM FEW250
     FM310500 20004KT P6SM FEW250=



000
FTUS43 KMKX 300300 AAB
TAFMKE
TAF AMD
KMKE 300300Z 3003/3106 34006KT 2SM BR OVC002
      TEMPO 3005/3008 1SM BR
     FM300800 VRB03KT 1SM BR OVC002
      TEMPO 3009/3012 1/2SM FG
     FM301400 03005KT 3SM BR BKN006 BKN015
     FM301700 VRB03KT 6SM BR SCT015
     FM302100 13006KT P6SM FEW250
     FM310500 20004KT P6SM FEW250=



000
FTUS43 KMKX 300300 AAB
TAFMKE
TAF AMD
KMKE 300300Z 3003/3106 34006KT 2SM BR OVC002
      TEMPO 3005/3008 1SM BR
     FM300800 VRB03KT 1SM BR OVC002
      TEMPO 3009/3012 1/2SM FG
     FM301400 03005KT 3SM BR BKN006 BKN015
     FM301700 VRB03KT 6SM BR SCT015
     FM302100 13006KT P6SM FEW250
     FM310500 20004KT P6SM FEW250=



000
FTUS43 KMKX 300158 AAA
TAFMKE
TAF AMD
KMKE 300158Z 3002/3106 01006KT 1 1/2SM -DZ BR OVC002
     FM300500 VRB03KT 3/4SM BR OVC002
     FM300900 VRB03KT 1/2SM FG OVC002
     FM301400 03005KT 3SM BR BKN006 BKN015
     FM301700 VRB03KT 6SM BR SCT015
     FM302100 13006KT P6SM FEW250
     FM310500 20004KT P6SM FEW250=



000
FTUS43 KMKX 300158 AAA
TAFMKE
TAF AMD
KMKE 300158Z 3002/3106 01006KT 1 1/2SM -DZ BR OVC002
     FM300500 VRB03KT 3/4SM BR OVC002
     FM300900 VRB03KT 1/2SM FG OVC002
     FM301400 03005KT 3SM BR BKN006 BKN015
     FM301700 VRB03KT 6SM BR SCT015
     FM302100 13006KT P6SM FEW250
     FM310500 20004KT P6SM FEW250=



000
FTUS43 KMKX 292323
TAFMSN
TAF
KMSN 292323Z 3000/3024 06004KT P6SM SCT012 OVC025
     FM300500 00000KT 3SM BR SCT009 BKN015
     FM300700 00000KT 2SM BR OVC006
      TEMPO 3010/3013 3/4SM BR OVC004
     FM301600 VRB03KT P6SM SCT008 SCT020
     FM301900 20004KT P6SM SCT200=



000
FTUS43 KMKX 292323
TAFMKE
TAF
KMKE 292323Z 3000/3106 02006KT 3/4SM -DZ BR OVC002
      TEMPO 3000/3002 1/2SM FG OVC001
     FM300900 VRB03KT 1/2SM FG OVC002
     FM301400 03005KT 3SM BR BKN006 BKN015
     FM301700 VRB03KT 6SM BR SCT015
     FM302100 13006KT P6SM FEW250
     FM310500 20004KT P6SM FEW250=



000
FTUS43 KMKX 292323
TAFMSN
TAF
KMSN 292323Z 3000/3024 06004KT P6SM SCT012 OVC025
     FM300500 00000KT 3SM BR SCT009 BKN015
     FM300700 00000KT 2SM BR OVC006
      TEMPO 3010/3013 3/4SM BR OVC004
     FM301600 VRB03KT P6SM SCT008 SCT020
     FM301900 20004KT P6SM SCT200=



000
FTUS43 KMKX 292323
TAFMKE
TAF
KMKE 292323Z 3000/3106 02006KT 3/4SM -DZ BR OVC002
      TEMPO 3000/3002 1/2SM FG OVC001
     FM300900 VRB03KT 1/2SM FG OVC002
     FM301400 03005KT 3SM BR BKN006 BKN015
     FM301700 VRB03KT 6SM BR SCT015
     FM302100 13006KT P6SM FEW250
     FM310500 20004KT P6SM FEW250=



000
FTUS43 KMKX 292323
TAFMKE
TAF
KMKE 292323Z 3000/3106 02006KT 3/4SM -DZ BR OVC002
      TEMPO 3000/3002 1/2SM FG OVC001
     FM300900 VRB03KT 1/2SM FG OVC002
     FM301400 03005KT 3SM BR BKN006 BKN015
     FM301700 VRB03KT 6SM BR SCT015
     FM302100 13006KT P6SM FEW250
     FM310500 20004KT P6SM FEW250=



000
FTUS43 KMKX 292323
TAFMSN
TAF
KMSN 292323Z 3000/3024 06004KT P6SM SCT012 OVC025
     FM300500 00000KT 3SM BR SCT009 BKN015
     FM300700 00000KT 2SM BR OVC006
      TEMPO 3010/3013 3/4SM BR OVC004
     FM301600 VRB03KT P6SM SCT008 SCT020
     FM301900 20004KT P6SM SCT200=



000
FTUS43 KMKX 292323
TAFMKE
TAF
KMKE 292323Z 3000/3106 02006KT 3/4SM -DZ BR OVC002
      TEMPO 3000/3002 1/2SM FG OVC001
     FM300900 VRB03KT 1/2SM FG OVC002
     FM301400 03005KT 3SM BR BKN006 BKN015
     FM301700 VRB03KT 6SM BR SCT015
     FM302100 13006KT P6SM FEW250
     FM310500 20004KT P6SM FEW250=



000
FTUS43 KMKX 292323
TAFMSN
TAF
KMSN 292323Z 3000/3024 06004KT P6SM SCT012 OVC025
     FM300500 00000KT 3SM BR SCT009 BKN015
     FM300700 00000KT 2SM BR OVC006
      TEMPO 3010/3013 3/4SM BR OVC004
     FM301600 VRB03KT P6SM SCT008 SCT020
     FM301900 20004KT P6SM SCT200=



000
FTUS43 KMKX 292159 AAC
TAFMKE
TAF AMD
KMKE 292159Z 2922/3024 04006KT 1/2SM FG VV002
      TEMPO 2922/2924 1/4SM FG VV001
     FM300100 00000KT 1SM BR OVC004
      TEMPO 3009/3012 3/4SM BR
     FM301200 06003KT 3SM BR OVC007
     FM301500 03004KT P6SM BKN008
     FM301600 05004KT P6SM SCT008
     FM302000 11006KT P6SM SCT150=



000
FTUS43 KMKX 292159 AAC
TAFMKE
TAF AMD
KMKE 292159Z 2922/3024 04006KT 1/2SM FG VV002
      TEMPO 2922/2924 1/4SM FG VV001
     FM300100 00000KT 1SM BR OVC004
      TEMPO 3009/3012 3/4SM BR
     FM301200 06003KT 3SM BR OVC007
     FM301500 03004KT P6SM BKN008
     FM301600 05004KT P6SM SCT008
     FM302000 11006KT P6SM SCT150=



000
FTUS43 KMKX 292159 AAC
TAFMKE
TAF AMD
KMKE 292159Z 2922/3024 04006KT 1/2SM FG VV002
      TEMPO 2922/2924 1/4SM FG VV001
     FM300100 00000KT 1SM BR OVC004
      TEMPO 3009/3012 3/4SM BR
     FM301200 06003KT 3SM BR OVC007
     FM301500 03004KT P6SM BKN008
     FM301600 05004KT P6SM SCT008
     FM302000 11006KT P6SM SCT150=



000
FTUS43 KMKX 292159 AAC
TAFMKE
TAF AMD
KMKE 292159Z 2922/3024 04006KT 1/2SM FG VV002
      TEMPO 2922/2924 1/4SM FG VV001
     FM300100 00000KT 1SM BR OVC004
      TEMPO 3009/3012 3/4SM BR
     FM301200 06003KT 3SM BR OVC007
     FM301500 03004KT P6SM BKN008
     FM301600 05004KT P6SM SCT008
     FM302000 11006KT P6SM SCT150=



000
FTUS43 KMKX 292020 AAB
TAFMKE
TAF AMD
KMKE 292020Z 2920/3024 03003KT 1SM BR BKN003 OVC007
     FM300600 00000KT 1SM BR BKN003
      TEMPO 3009/3012 3/4SM BR
     FM301200 06003KT 3SM BR OVC007
     FM301500 03004KT P6SM BKN008
     FM301600 05004KT P6SM SCT008
     FM302000 11006KT P6SM SCT150=



000
FTUS43 KMKX 292020 AAB
TAFMKE
TAF AMD
KMKE 292020Z 2920/3024 03003KT 1SM BR BKN003 OVC007
     FM300600 00000KT 1SM BR BKN003
      TEMPO 3009/3012 3/4SM BR
     FM301200 06003KT 3SM BR OVC007
     FM301500 03004KT P6SM BKN008
     FM301600 05004KT P6SM SCT008
     FM302000 11006KT P6SM SCT150=



000
FTUS43 KMKX 291913 AAA
TAFMKE
TAF AMD
KMKE 291913Z 2919/3024 03005KT 2SM BR OVC005
     FM300100 07005KT 2SM BR OVC004
     FM300600 00000KT 1SM BR BKN003
      TEMPO 3009/3012 3/4SM BR
     FM301200 06003KT 3SM BR OVC007
     FM301500 03004KT P6SM BKN008
     FM301600 05004KT P6SM SCT008
     FM302000 11006KT P6SM SCT150=



000
FTUS43 KMKX 291913 AAA
TAFMKE
TAF AMD
KMKE 291913Z 2919/3024 03005KT 2SM BR OVC005
     FM300100 07005KT 2SM BR OVC004
     FM300600 00000KT 1SM BR BKN003
      TEMPO 3009/3012 3/4SM BR
     FM301200 06003KT 3SM BR OVC007
     FM301500 03004KT P6SM BKN008
     FM301600 05004KT P6SM SCT008
     FM302000 11006KT P6SM SCT150=



000
FTUS43 KMKX 291913 AAA
TAFMKE
TAF AMD
KMKE 291913Z 2919/3024 03005KT 2SM BR OVC005
     FM300100 07005KT 2SM BR OVC004
     FM300600 00000KT 1SM BR BKN003
      TEMPO 3009/3012 3/4SM BR
     FM301200 06003KT 3SM BR OVC007
     FM301500 03004KT P6SM BKN008
     FM301600 05004KT P6SM SCT008
     FM302000 11006KT P6SM SCT150=



000
FTUS43 KMKX 291905 AAB
TAFMSN
TAF AMD
KMSN 291905Z 2919/3018 09004KT P6SM BKN011 OVC015
     FM300000 06004KT P6SM OVC011
     FM300300 VRB03KT 4SM BR BKN008
     FM300700 00000KT 1SM BR OVC005
      TEMPO 3009/3013 1/2SM FG VV002
     FM301500 00000KT 5SM BR BKN008
     FM301600 VRB03KT P6SM SCT008 BKN020=



000
FTUS43 KMKX 291905 AAB
TAFMSN
TAF AMD
KMSN 291905Z 2919/3018 09004KT P6SM BKN011 OVC015
     FM300000 06004KT P6SM OVC011
     FM300300 VRB03KT 4SM BR BKN008
     FM300700 00000KT 1SM BR OVC005
      TEMPO 3009/3013 1/2SM FG VV002
     FM301500 00000KT 5SM BR BKN008
     FM301600 VRB03KT P6SM SCT008 BKN020=



000
FTUS43 KMKX 291905 AAB
TAFMSN
TAF AMD
KMSN 291905Z 2919/3018 09004KT P6SM BKN011 OVC015
     FM300000 06004KT P6SM OVC011
     FM300300 VRB03KT 4SM BR BKN008
     FM300700 00000KT 1SM BR OVC005
      TEMPO 3009/3013 1/2SM FG VV002
     FM301500 00000KT 5SM BR BKN008
     FM301600 VRB03KT P6SM SCT008 BKN020=



000
FTUS43 KMKX 291905 AAB
TAFMSN
TAF AMD
KMSN 291905Z 2919/3018 09004KT P6SM BKN011 OVC015
     FM300000 06004KT P6SM OVC011
     FM300300 VRB03KT 4SM BR BKN008
     FM300700 00000KT 1SM BR OVC005
      TEMPO 3009/3013 1/2SM FG VV002
     FM301500 00000KT 5SM BR BKN008
     FM301600 VRB03KT P6SM SCT008 BKN020=



    US Dept of Commerce
    National Oceanic and Atmospheric Administration
    National Weather Service
    1325 East West Highway
    Silver Spring, MD 20910
    Page Author: NWS Internet Services Team
Disclaimer
Information Quality
Credits
Glossary
Privacy Policy
Freedom of Information Act (FOIA)
About Us
Career Opportunities